Time,TemperatureF,DewpointF,PressureIn,WindDirection,WindDirectionDegrees,WindSpeedMPH,WindSpeedGustMPH,Humidity,HourlyPrecipIn,Conditions,Clouds,dailyrainin,SoftwareType,DateUTC
2013-02-07 00:01:00,62.8,62.8,29.91,ESE,117,1.3,3.5,100,0.00,RA,FEW,0.00,WeatherDisplay:10.37,2013-02-07 06:01:00,
2013-02-07 00:06:00,62.8,62.8,29.91,East,98,2.8,5.8,100,0.00,RA,FEW,0.00,WeatherDisplay:10.37,2013-02-07 06:06:00,
2013-02-07 00:11:00,62.8,62.8,29.91,ENE,78,1.4,5.8,100,0.00,,FEW,0.00,WeatherDisplay:10.37,2013-02-07 06:11:00,
2013-02-07 00:16:00,62.9,62.9,29.91,East,90,1.5,4.6,100,0.00,,FEW,0.00,WeatherDisplay:10.37,2013-02-07 06:16:00,
2013-02-07 00:21:00,62.9,62.9,29.91,East,94,1.6,5.3,100,0.00,,FEW,0.00,WeatherDisplay:10.37,2013-02-07 06:21:00,
2013-02-07 00:26:00,62.9,62.9,29.91,ESE,114,0.1,2.3,100,0.00,,FEW,0.00,WeatherDisplay:10.37,2013-02-07 06:26:00,
2013-02-07 00:31:00,62.9,62.9,29.91,ESE,108,0.9,3.5,100,0.00,,FEW,0.00,WeatherDisplay:10.37,2013-02-07 06:31:00,
2013-02-07 00:36:00,62.8,62.8,29.91,East,101,0.8,3.5,100,0.00,,FEW,0.00,WeatherDisplay:10.37,2013-02-07 06:36:00,
2013-02-07 00:41:00,62.9,62.9,29.91,East,94,1.7,5.8,100,0.00,,FEW,0.00,WeatherDisplay:10.37,2013-02-07 06:41:00,
2013-02-07 00:46:00,62.9,62.9,29.91,East,95,3.2,5.8,100,0.00,,FEW,0.00,WeatherDisplay:10.37,2013-02-07 06:46:00,
2013-02-07 00:51:00,62.9,62.9,29.91,ESE,111,1.5,4.6,100,0.00,,FEW,0.00,WeatherDisplay:10.37,2013-02-07 06:51:00,
2013-02-07 00:56:00,62.9,62.9,29.91,ESE,119,2.5,4.6,100,0.00,,FEW,0.00,WeatherDisplay:10.37,2013-02-07 06:56:00,
2013-02-07 01:01:00,62.9,62.9,29.91,ESE,115,0.6,2.3,100,0.00,,FEW,0.00,WeatherDisplay:10.37,2013-02-07 07:01:00,
2013-02-07 01:06:00,62.9,62.9,29.91,East,90,1.9,4.6,100,0.00,,FEW,0.00,WeatherDisplay:10.37,2013-02-07 07:06:00,
2013-02-07 01:11:00,62.9,62.9,29.91,ESE,111,0.6,1.1,100,0.00,,FEW,0.00,WeatherDisplay:10.37,2013-02-07 07:11:00,
2013-02-07 01:16:00,62.9,62.9,29.91,SE,129,1.6,5.8,100,0.00,,FEW,0.00,WeatherDisplay:10.37,2013-02-07 07:16:00,
2013-02-07 01:21:00,62.9,62.9,29.91,East,98,0.6,3.5,100,0.00,,FEW,0.00,WeatherDisplay:10.37,2013-02-07 07:21:00,
2013-02-07 01:26:00,62.8,62.8,29.91,ESE,102,0.6,1.1,100,0.00,,FEW,0.00,WeatherDisplay:10.37,2013-02-07 07:26:00,
2013-02-07 01:31:00,62.8,62.8,29.91,East,92,1.7,4.6,100,0.00,,FEW,0.00,WeatherDisplay:10.37,2013-02-07 07:31:00,
2013-02-07 01:36:00,62.8,62.8,29.91,SE,138,0.1,1.1,100,0.00,,FEW,0.00,WeatherDisplay:10.37,2013-02-07 07:36:00,
2013-02-07 01:41:00,62.7,62.7,29.91,ESE,114,0.5,2.3,100,0.00,,FEW,0.00,WeatherDisplay:10.37,2013-02-07 07:41:00,
2013-02-07 01:46:00,62.7,62.7,29.91,ESE,115,0.3,1.1,100,0.00,,FEW,0.00,WeatherDisplay:10.37,2013-02-07 07:46:00,
2013-02-07 01:51:00,62.7,62.7,29.91,East,84,0.0,0.0,100,0.00,,FEW,0.00,WeatherDisplay:10.37,2013-02-07 07:51:00,
2013-02-07 01:56:00,62.7,62.7,29.91,ESE,102,0.1,1.1,100,0.00,,FEW,0.00,WeatherDisplay:10.37,2013-02-07 07:56:00,
2013-02-07 02:01:00,62.7,62.7,29.91,ESE,113,0.0,0.0,100,0.00,,FEW,0.00,WeatherDisplay:10.37,2013-02-07 08:01:00,
2013-02-07 02:06:00,62.7,62.7,29.91,East,88,0.0,0.0,100,0.00,,FEW,0.00,WeatherDisplay:10.37,2013-02-07 08:06:00,
2013-02-07 02:11:00,62.7,62.7,29.91,ENE,58,0.8,2.3,100,0.00,,FEW,0.00,WeatherDisplay:10.37,2013-02-07 08:11:00,
2013-02-07 02:16:00,62.8,62.8,29.91,East,97,0.2,1.1,100,0.00,,FEW,0.00,WeatherDisplay:10.37,2013-02-07 08:16:00,
2013-02-07 02:21:00,62.9,62.9,29.91,NE,49,0.0,0.0,100,0.00,,FEW,0.00,WeatherDisplay:10.37,2013-02-07 08:21:00,
2013-02-07 02:26:00,62.9,62.9,29.91,East,90,0.7,2.3,100,0.00,,FEW,0.00,WeatherDisplay:10.37,2013-02-07 08:26:00,
2013-02-07 02:31:00,62.9,62.9,29.90,NE,54,0.9,2.3,100,0.00,,FEW,0.00,WeatherDisplay:10.37,2013-02-07 08:31:00,
2013-02-07 02:36:00,62.9,62.9,29.90,ENE,73,0.7,1.1,100,0.00,,FEW,0.00,WeatherDisplay:10.37,2013-02-07 08:36:00,
2013-02-07 02:41:00,62.9,62.9,29.90,ENE,74,0.1,2.3,100,0.00,,FEW,0.00,WeatherDisplay:10.37,2013-02-07 08:41:00,
2013-02-07 02:46:00,62.9,62.9,29.90,East,95,0.3,1.1,100,0.00,,FEW,0.00,WeatherDisplay:10.37,2013-02-07 08:46:00,
2013-02-07 02:51:00,62.9,62.9,29.90,ENE,73,0.5,1.1,100,0.00,,FEW,0.00,WeatherDisplay:10.37,2013-02-07 08:51:00,
2013-02-07 02:56:00,63.0,63.0,29.90,ENE,64,0.1,0.0,100,0.00,,FEW,0.00,WeatherDisplay:10.37,2013-02-07 08:56:00,
2013-02-07 03:01:00,63.0,63.0,29.90,ESE,102,0.1,1.1,100,0.00,,FEW,0.00,WeatherDisplay:10.37,2013-02-07 09:01:00,
2013-02-07 03:06:00,63.0,63.0,29.90,ESE,109,0.0,1.1,100,0.00,,FEW,0.00,WeatherDisplay:10.37,2013-02-07 09:06:00,
2013-02-07 03:11:00,63.1,63.1,29.90,ENE,78,0.2,2.3,100,0.00,,FEW,0.00,WeatherDisplay:10.37,2013-02-07 09:11:00,
2013-02-07 03:16:00,63.2,63.2,29.90,ESE,116,0.0,0.0,100,0.00,,FEW,0.01,WeatherDisplay:10.37,2013-02-07 09:16:00,
2013-02-07 03:21:00,63.2,63.2,29.90,East,97,0.1,1.1,100,0.01,RA,FEW,0.01,WeatherDisplay:10.37,2013-02-07 09:21:00,
2013-02-07 03:26:00,63.3,63.3,29.90,ESE,102,0.0,0.0,100,0.01,RA,FEW,0.01,WeatherDisplay:10.37,2013-02-07 09:26:00,
2013-02-07 03:31:00,63.4,63.4,29.90,ESE,102,0.0,0.0,100,0.01,,FEW,0.01,WeatherDisplay:10.37,2013-02-07 09:31:00,
2013-02-07 03:36:00,63.5,63.5,29.90,East,95,0.0,0.0,100,0.01,,FEW,0.01,WeatherDisplay:10.37,2013-02-07 09:36:00,
2013-02-07 03:41:00,63.5,63.5,29.90,ESE,119,0.0,0.0,100,0.01,,FEW,0.01,WeatherDisplay:10.37,2013-02-07 09:41:00,
2013-02-07 03:46:00,63.6,63.6,29.90,ESE,107,0.0,1.1,100,0.01,,FEW,0.01,WeatherDisplay:10.37,2013-02-07 09:46:00,
2013-02-07 03:51:00,63.6,63.6,29.90,ESE,107,0.0,0.0,100,0.01,,FEW,0.01,WeatherDisplay:10.37,2013-02-07 09:51:00,
2013-02-07 03:56:00,63.7,63.7,29.90,ESE,107,0.0,0.0,100,0.01,,FEW,0.01,WeatherDisplay:10.37,2013-02-07 09:56:00,
2013-02-07 04:01:00,63.7,63.7,29.90,ESE,107,0.0,0.0,100,0.01,,FEW,0.01,WeatherDisplay:10.37,2013-02-07 10:01:00,
2013-02-07 04:06:00,63.7,63.7,29.90,ESE,107,0.0,0.0,100,0.01,,FEW,0.01,WeatherDisplay:10.37,2013-02-07 10:06:00,
2013-02-07 04:11:00,63.8,63.8,29.90,ESE,108,0.0,0.0,100,0.01,,FEW,0.01,WeatherDisplay:10.37,2013-02-07 10:11:00,
2013-02-07 04:16:00,63.8,63.8,29.90,ESE,116,0.0,1.1,100,0.01,,FEW,0.01,WeatherDisplay:10.37,2013-02-07 10:16:00,
2013-02-07 04:21:00,63.9,63.9,29.90,ESE,116,0.0,0.0,100,0.00,,FEW,0.01,WeatherDisplay:10.37,2013-02-07 10:21:00,
2013-02-07 04:26:00,63.9,63.9,29.90,ESE,116,0.0,0.0,100,0.00,,FEW,0.01,WeatherDisplay:10.37,2013-02-07 10:26:00,
2013-02-07 04:31:00,64.0,64.0,29.90,East,97,0.0,0.0,100,0.00,,FEW,0.01,WeatherDisplay:10.37,2013-02-07 10:31:00,
2013-02-07 04:36:00,64.0,64.0,29.90,East,97,0.0,0.0,100,0.00,,FEW,0.01,WeatherDisplay:10.37,2013-02-07 10:36:00,
2013-02-07 04:41:00,64.0,64.0,29.90,East,96,0.0,0.0,100,0.00,,FEW,0.01,WeatherDisplay:10.37,2013-02-07 10:41:00,
2013-02-07 04:46:00,64.1,64.1,29.90,East,96,0.0,0.0,100,0.00,,FEW,0.01,WeatherDisplay:10.37,2013-02-07 10:46:00,
2013-02-07 04:51:00,64.1,64.1,29.90,East,97,0.0,0.0,100,0.00,,FEW,0.01,WeatherDisplay:10.37,2013-02-07 10:51:00,
2013-02-07 04:56:00,64.1,64.1,29.90,ENE,78,0.1,1.1,100,0.00,,FEW,0.01,WeatherDisplay:10.37,2013-02-07 10:56:00,
2013-02-07 05:01:00,64.1,64.1,29.89,ENE,78,0.0,0.0,100,0.00,,FEW,0.01,WeatherDisplay:10.37,2013-02-07 11:01:00,
2013-02-07 05:06:00,64.2,64.2,29.90,East,86,0.2,1.1,100,0.00,,FEW,0.01,WeatherDisplay:10.37,2013-02-07 11:06:00,
2013-02-07 05:11:00,64.2,64.2,29.89,ESE,111,0.1,1.1,100,0.00,,FEW,0.01,WeatherDisplay:10.37,2013-02-07 11:11:00,
2013-02-07 05:16:00,64.2,64.2,29.89,ENE,69,3.2,5.8,100,0.00,,FEW,0.01,WeatherDisplay:10.37,2013-02-07 11:16:00,
2013-02-07 05:21:00,64.2,64.2,29.90,ESE,111,0.1,1.1,100,0.00,,FEW,0.01,WeatherDisplay:10.37,2013-02-07 11:21:00,
2013-02-07 05:26:00,64.2,64.2,29.90,East,83,0.0,0.0,100,0.00,,FEW,0.01,WeatherDisplay:10.37,2013-02-07 11:26:00,
2013-02-07 05:31:00,64.2,64.2,29.90,SE,128,0.0,1.1,100,0.00,,FEW,0.01,WeatherDisplay:10.37,2013-02-07 11:31:00,
2013-02-07 05:36:00,64.1,64.1,29.90,SE,128,0.0,0.0,100,0.00,,FEW,0.01,WeatherDisplay:10.37,2013-02-07 11:36:00,
2013-02-07 05:41:00,64.1,64.1,29.90,SE,128,0.1,1.1,100,0.00,,FEW,0.01,WeatherDisplay:10.37,2013-02-07 11:41:00,
2013-02-07 05:46:00,64.0,64.0,29.90,East,82,0.3,1.1,100,0.00,,FEW,0.01,WeatherDisplay:10.37,2013-02-07 11:46:00,
2013-02-07 05:51:00,64.1,64.1,29.90,East,81,0.3,1.1,100,0.00,,FEW,0.01,WeatherDisplay:10.37,2013-02-07 11:51:00,
2013-02-07 05:56:00,64.0,64.0,29.90,ESE,109,0.0,1.1,100,0.00,,FEW,0.01,WeatherDisplay:10.37,2013-02-07 11:56:00,
2013-02-07 06:01:00,64.1,64.1,29.90,East,99,0.4,1.1,100,0.00,,FEW,0.01,WeatherDisplay:10.37,2013-02-07 12:01:00,
2013-02-07 06:06:00,64.1,64.1,29.90,ESE,122,0.0,0.0,100,0.00,,FEW,0.01,WeatherDisplay:10.37,2013-02-07 12:06:00,
2013-02-07 06:11:00,64.1,64.1,29.90,ESE,118,0.0,0.0,100,0.00,,FEW,0.01,WeatherDisplay:10.37,2013-02-07 12:11:00,
2013-02-07 06:16:00,64.1,64.1,29.90,East,97,0.0,1.1,100,0.00,,FEW,0.01,WeatherDisplay:10.37,2013-02-07 12:16:00,
2013-02-07 06:21:00,64.1,64.1,29.90,East,97,0.0,0.0,100,0.00,,FEW,0.01,WeatherDisplay:10.37,2013-02-07 12:21:00,
2013-02-07 06:26:00,64.1,64.1,29.90,East,96,0.0,0.0,100,0.00,,FEW,0.01,WeatherDisplay:10.37,2013-02-07 12:26:00,
2013-02-07 06:31:00,64.1,64.1,29.90,East,97,0.0,0.0,100,0.00,,FEW,0.01,WeatherDisplay:10.37,2013-02-07 12:31:00,
2013-02-07 06:36:00,64.1,64.1,29.90,East,97,0.0,0.0,100,0.00,,FEW,0.01,WeatherDisplay:10.37,2013-02-07 12:36:00,
2013-02-07 06:41:00,64.1,64.1,29.90,East,95,0.0,0.0,100,0.00,,FEW,0.01,WeatherDisplay:10.37,2013-02-07 12:41:00,
2013-02-07 06:46:00,64.1,64.1,29.90,East,95,0.1,1.1,100,0.00,,FEW,0.01,WeatherDisplay:10.37,2013-02-07 12:46:00,
2013-02-07 06:51:00,64.1,64.1,29.91,East,95,0.0,0.0,100,0.00,,FEW,0.01,WeatherDisplay:10.37,2013-02-07 12:51:00,
2013-02-07 06:56:00,64.1,64.1,29.91,East,95,0.0,0.0,100,0.00,,FEW,0.01,WeatherDisplay:10.37,2013-02-07 12:56:00,
2013-02-07 07:01:00,64.1,64.1,29.91,East,92,0.0,0.0,100,0.00,,FEW,0.01,WeatherDisplay:10.37,2013-02-07 13:01:00,
2013-02-07 07:06:00,64.2,64.2,29.91,East,92,0.0,0.0,100,0.00,,FEW,0.01,WeatherDisplay:10.37,2013-02-07 13:06:00,
2013-02-07 07:11:00,64.2,64.2,29.92,ESE,102,0.0,0.0,100,0.00,,FEW,0.01,WeatherDisplay:10.37,2013-02-07 13:11:00,
2013-02-07 07:16:00,64.2,64.2,29.92,ESE,102,0.0,0.0,100,0.00,,FEW,0.01,WeatherDisplay:10.37,2013-02-07 13:16:00,
2013-02-07 07:21:00,64.3,64.3,29.92,ESE,102,0.0,0.0,100,0.00,,FEW,0.01,WeatherDisplay:10.37,2013-02-07 13:21:00,
2013-02-07 07:26:00,64.3,64.3,29.92,ESE,102,0.0,0.0,100,0.00,,FEW,0.01,WeatherDisplay:10.37,2013-02-07 13:26:00,
2013-02-07 07:31:00,64.4,64.4,29.92,ESE,102,0.0,0.0,100,0.00,,FEW,0.01,WeatherDisplay:10.37,2013-02-07 13:31:00,
2013-02-07 07:36:00,64.4,64.4,29.92,ESE,102,0.0,0.0,100,0.00,,FEW,0.01,WeatherDisplay:10.37,2013-02-07 13:36:00,
2013-02-07 07:41:00,64.5,64.5,29.92,ESE,102,0.0,0.0,100,0.00,,FEW,0.01,WeatherDisplay:10.37,2013-02-07 13:41:00,
2013-02-07 07:46:00,64.6,64.6,29.92,ESE,102,0.0,0.0,100,0.00,,FEW,0.01,WeatherDisplay:10.37,2013-02-07 13:46:00,
2013-02-07 07:51:00,64.7,64.7,29.93,SE,124,0.0,0.0,100,0.00,,FEW,0.01,WeatherDisplay:10.37,2013-02-07 13:51:00,
2013-02-07 07:56:00,64.8,64.8,29.93,SE,124,0.2,2.3,100,0.00,,FEW,0.01,WeatherDisplay:10.37,2013-02-07 13:56:00,
2013-02-07 08:01:00,64.9,64.9,29.93,SE,124,0.0,0.0,100,0.00,,FEW,0.01,WeatherDisplay:10.37,2013-02-07 14:01:00,
2013-02-07 08:06:00,65.0,65.0,29.93,ESE,120,0.0,0.0,100,0.00,,FEW,0.01,WeatherDisplay:10.37,2013-02-07 14:06:00,
2013-02-07 08:11:00,65.1,65.1,29.94,ESE,114,0.0,1.1,100,0.00,,FEW,0.01,WeatherDisplay:10.37,2013-02-07 14:11:00,
2013-02-07 08:16:00,65.2,65.2,29.94,ESE,104,0.0,1.1,100,0.00,,FEW,0.01,WeatherDisplay:10.37,2013-02-07 14:16:00,
2013-02-07 08:21:00,65.2,65.2,29.94,ESE,111,0.0,0.0,100,0.00,,FEW,0.01,WeatherDisplay:10.37,2013-02-07 14:21:00,
2013-02-07 08:26:00,65.3,65.3,29.94,East,88,0.0,0.0,100,0.00,,FEW,0.01,WeatherDisplay:10.37,2013-02-07 14:26:00,
2013-02-07 08:31:00,65.4,65.4,29.95,ENE,77,0.0,3.5,100,0.00,,FEW,0.01,WeatherDisplay:10.37,2013-02-07 14:31:00,
2013-02-07 08:36:00,65.4,65.4,29.95,ESE,108,0.8,2.1,100,0.00,,FEW,0.01,WeatherDisplay:10.37,2013-02-07 14:36:00,
2013-02-07 08:41:00,65.5,65.5,29.95,ESE,102,0.1,1.1,100,0.00,,FEW,0.01,WeatherDisplay:10.37,2013-02-07 14:41:00,
2013-02-07 08:46:00,65.5,65.5,29.95,East,95,0.0,1.1,100,0.00,,FEW,0.01,WeatherDisplay:10.37,2013-02-07 14:46:00,
2013-02-07 08:51:00,65.6,65.6,29.95,ESE,108,0.0,0.0,100,0.00,,FEW,0.01,WeatherDisplay:10.37,2013-02-07 14:51:00,
2013-02-07 08:56:00,65.6,65.6,29.95,East,81,0.0,0.0,100,0.00,,FEW,0.01,WeatherDisplay:10.37,2013-02-07 14:56:00,
2013-02-07 09:01:00,65.8,65.8,29.95,ENE,76,0.0,1.1,100,0.00,,FEW,0.01,WeatherDisplay:10.37,2013-02-07 15:01:00,
2013-02-07 09:06:00,65.9,65.9,29.95,ENE,64,0.1,0.0,100,0.00,,FEW,0.01,WeatherDisplay:10.37,2013-02-07 15:06:00,
2013-02-07 09:11:00,66.1,66.1,29.95,ENE,73,0.8,0.0,100,0.00,,FEW,0.01,WeatherDisplay:10.37,2013-02-07 15:11:00,
2013-02-07 09:16:00,66.1,66.1,29.95,East,87,0.2,1.1,100,0.00,,FEW,0.01,WeatherDisplay:10.37,2013-02-07 15:16:00,
2013-02-07 09:21:00,66.2,66.2,29.95,ESE,104,0.3,1.1,100,0.00,,FEW,0.01,WeatherDisplay:10.37,2013-02-07 15:21:00,
2013-02-07 09:26:00,66.4,66.4,29.96,ESE,120,0.1,1.1,100,0.00,,FEW,0.01,WeatherDisplay:10.37,2013-02-07 15:26:00,
2013-02-07 09:31:00,66.5,66.5,29.95,ESE,123,0.0,0.0,100,0.00,,FEW,0.01,WeatherDisplay:10.37,2013-02-07 15:31:00,
2013-02-07 09:36:00,66.7,66.7,29.96,ENE,60,0.0,0.0,100,0.00,,FEW,0.01,WeatherDisplay:10.37,2013-02-07 15:36:00,
2013-02-07 09:41:00,66.8,66.8,29.96,ENE,60,0.0,0.0,100,0.00,,FEW,0.01,WeatherDisplay:10.37,2013-02-07 15:41:00,
2013-02-07 09:46:00,66.9,66.9,29.96,ENE,71,0.5,2.3,100,0.00,,FEW,0.01,WeatherDisplay:10.37,2013-02-07 15:46:00,
2013-02-07 09:51:00,67.0,67.0,29.96,East,90,0.0,0.0,100,0.00,,FEW,0.01,WeatherDisplay:10.37,2013-02-07 15:51:00,
2013-02-07 09:56:00,67.1,67.1,29.97,NE,35,0.0,0.0,100,0.00,,FEW,0.01,WeatherDisplay:10.37,2013-02-07 15:56:00,
2013-02-07 10:01:00,67.3,67.3,29.97,NE,56,0.1,2.3,100,0.00,,FEW,0.01,WeatherDisplay:10.37,2013-02-07 16:01:00,
2013-02-07 10:06:00,67.5,67.5,29.96,ENE,57,0.1,2.3,100,0.00,,FEW,0.01,WeatherDisplay:10.37,2013-02-07 16:06:00,
2013-02-07 10:11:00,67.7,67.7,29.97,ENE,57,0.0,0.0,100,0.00,,FEW,0.01,WeatherDisplay:10.37,2013-02-07 16:11:00,
2013-02-07 10:16:00,67.9,67.9,29.97,ENE,69,0.5,1.9,100,0.00,,FEW,0.01,WeatherDisplay:10.37,2013-02-07 16:16:00,
2013-02-07 10:21:00,68.1,68.1,29.97,ENE,69,0.0,0.0,100,0.00,,FEW,0.01,WeatherDisplay:10.37,2013-02-07 16:21:00,
2013-02-07 10:26:00,68.4,68.4,29.97,ENE,71,0.3,0.0,100,0.00,,FEW,0.01,WeatherDisplay:10.37,2013-02-07 16:26:00,
2013-02-07 10:31:00,68.5,68.5,29.97,ENE,74,0.3,0.0,100,0.00,,FEW,0.01,WeatherDisplay:10.37,2013-02-07 16:31:00,
2013-02-07 10:36:00,68.8,68.8,29.97,ESE,114,2.8,2.8,100,0.00,,FEW,0.01,WeatherDisplay:10.37,2013-02-07 16:36:00,
2013-02-07 10:41:00,68.8,68.8,29.97,ENE,58,0.0,0.0,100,0.00,,FEW,0.01,WeatherDisplay:10.37,2013-02-07 16:41:00,
2013-02-07 10:46:00,69.0,69.0,29.97,ENE,77,0.1,1.1,100,0.00,,FEW,0.01,WeatherDisplay:10.37,2013-02-07 16:46:00,
2013-02-07 10:51:00,69.4,67.9,29.97,ENE,78,0.6,2.1,95,0.00,,FEW,0.01,WeatherDisplay:10.37,2013-02-07 16:51:00,
2013-02-07 10:56:00,69.6,68.1,29.97,ESE,107,0.8,2.3,95,0.00,,FEW,0.01,WeatherDisplay:10.37,2013-02-07 16:56:00,
2013-02-07 11:01:00,69.9,68.4,29.97,ESE,109,0.2,1.1,95,0.00,,FEW,0.01,WeatherDisplay:10.37,2013-02-07 17:01:00,
2013-02-07 11:06:00,70.2,68.4,29.97,ESE,117,0.4,1.1,94,0.00,,FEW,0.01,WeatherDisplay:10.37,2013-02-07 17:06:00,
2013-02-07 11:11:00,70.4,68.3,29.97,ENE,70,0.2,2.3,93,0.00,,FEW,0.01,WeatherDisplay:10.37,2013-02-07 17:11:00,
2013-02-07 11:16:00,70.8,68.7,29.97,ESE,111,0.1,2.3,93,0.00,,FEW,0.01,WeatherDisplay:10.37,2013-02-07 17:16:00,
2013-02-07 11:21:00,70.8,68.7,29.97,SSE,158,0.1,1.1,93,0.00,,FEW,0.01,WeatherDisplay:10.37,2013-02-07 17:21:00,
2013-02-07 11:26:00,71.7,69.6,29.96,ESE,109,0.1,1.1,93,0.00,,FEW,0.01,WeatherDisplay:10.37,2013-02-07 17:26:00,
2013-02-07 11:31:00,72.3,69.5,29.96,ESE,117,0.0,1.1,91,0.00,,FEW,0.01,WeatherDisplay:10.37,2013-02-07 17:31:00,
2013-02-07 11:36:00,73.4,70.3,29.96,NNE,24,0.2,1.9,90,0.00,,FEW,0.01,WeatherDisplay:10.37,2013-02-07 17:36:00,
2013-02-07 11:41:00,74.4,70.6,29.96,NNE,28,0.3,0.0,88,0.00,,FEW,0.01,WeatherDisplay:10.37,2013-02-07 17:41:00,
2013-02-07 11:46:00,75.4,71.3,29.96,East,96,0.3,2.3,87,0.00,,FEW,0.01,WeatherDisplay:10.37,2013-02-07 17:46:00,
2013-02-07 11:51:00,76.0,70.8,29.96,WNW,297,0.3,2.3,84,0.00,,FEW,0.01,WeatherDisplay:10.37,2013-02-07 17:51:00,
2013-02-07 11:56:00,75.4,70.2,29.96,ENE,77,0.0,2.3,84,0.00,,FEW,0.01,WeatherDisplay:10.37,2013-02-07 17:56:00,
2013-02-07 12:01:00,75.7,70.5,29.96,SSE,166,0.0,0.0,84,0.00,,FEW,0.01,WeatherDisplay:10.37,2013-02-07 18:01:00,
2013-02-07 12:06:00,75.6,70.1,29.95,West,268,0.0,3.5,83,0.00,,FEW,0.01,WeatherDisplay:10.37,2013-02-07 18:06:00,
2013-02-07 12:11:00,75.7,70.2,29.95,West,265,0.5,2.3,83,0.00,,FEW,0.01,WeatherDisplay:10.37,2013-02-07 18:11:00,
2013-02-07 12:16:00,75.6,70.4,29.95,WNW,290,0.4,2.3,84,0.00,,FEW,0.01,WeatherDisplay:10.37,2013-02-07 18:16:00,
2013-02-07 12:21:00,75.7,70.9,29.95,WNW,290,0.5,0.0,85,0.00,,FEW,0.01,WeatherDisplay:10.37,2013-02-07 18:21:00,
2013-02-07 12:26:00,75.4,70.2,29.95,NNW,348,0.0,0.0,84,0.00,,FEW,0.01,WeatherDisplay:10.37,2013-02-07 18:26:00,
2013-02-07 12:31:00,75.0,69.8,29.95,West,280,0.0,2.3,84,0.00,,FEW,0.01,WeatherDisplay:10.37,2013-02-07 18:31:00,
2013-02-07 12:36:00,74.6,69.8,29.95,NW,311,0.1,2.3,85,0.00,,FEW,0.01,WeatherDisplay:10.37,2013-02-07 18:36:00,
2013-02-07 12:41:00,74.5,70.0,29.95,North,356,0.0,2.3,86,0.00,,FEW,0.01,WeatherDisplay:10.37,2013-02-07 18:41:00,
2013-02-07 12:46:00,74.2,69.4,29.95,WNW,300,0.0,3.5,85,0.00,,FEW,0.01,WeatherDisplay:10.37,2013-02-07 18:46:00,
2013-02-07 12:51:00,74.0,69.5,29.95,ENE,75,0.0,2.3,86,0.00,,FEW,0.01,WeatherDisplay:10.37,2013-02-07 18:51:00,
2013-02-07 12:56:00,73.7,69.2,29.94,WNW,284,0.7,3.5,86,0.00,,FEW,0.01,WeatherDisplay:10.37,2013-02-07 18:56:00,
2013-02-07 13:01:00,73.6,69.5,29.94,NNW,329,5.1,7.5,87,0.00,,FEW,0.01,WeatherDisplay:10.37,2013-02-07 19:01:00,
2013-02-07 13:06:00,73.3,69.5,29.94,NW,308,4.0,4.0,88,0.00,,FEW,0.01,WeatherDisplay:10.37,2013-02-07 19:06:00,
2013-02-07 13:11:00,73.2,69.4,29.94,WNW,298,2.1,3.5,88,0.00,,FEW,0.01,WeatherDisplay:10.37,2013-02-07 19:11:00,
2013-02-07 13:16:00,73.2,69.4,29.94,NW,305,3.6,5.8,88,0.00,,FEW,0.01,WeatherDisplay:10.37,2013-02-07 19:16:00,
2013-02-07 13:21:00,73.4,69.6,29.94,NW,308,5.2,5.8,88,0.00,,FEW,0.01,WeatherDisplay:10.37,2013-02-07 19:21:00,
2013-02-07 13:26:00,73.2,69.4,29.94,West,276,4.8,8.1,88,0.00,,FEW,0.01,WeatherDisplay:10.37,2013-02-07 19:26:00,
2013-02-07 13:31:00,73.0,69.2,29.93,NW,312,5.4,5.6,88,0.00,,FEW,0.01,WeatherDisplay:10.37,2013-02-07 19:31:00,
2013-02-07 13:36:00,73.2,69.8,29.93,NNW,334,1.1,2.3,89,0.00,,FEW,0.01,WeatherDisplay:10.37,2013-02-07 19:36:00,
2013-02-07 13:41:00,73.5,70.1,29.93,NNW,328,0.0,0.0,89,0.00,,FEW,0.01,WeatherDisplay:10.37,2013-02-07 19:41:00,
2013-02-07 13:46:00,73.5,69.7,29.93,NNE,28,0.9,2.3,88,0.00,,FEW,0.01,WeatherDisplay:10.37,2013-02-07 19:46:00,
2013-02-07 13:51:00,73.8,70.0,29.93,North,9,0.0,0.0,88,0.00,,FEW,0.01,WeatherDisplay:10.37,2013-02-07 19:51:00,
2013-02-07 13:56:00,74.1,70.0,29.93,East,83,0.0,2.3,87,0.00,,FEW,0.01,WeatherDisplay:10.37,2013-02-07 19:56:00,
2013-02-07 14:01:00,73.8,69.3,29.93,NW,305,3.2,5.6,86,0.00,,FEW,0.01,WeatherDisplay:10.37,2013-02-07 20:01:00,
2013-02-07 14:06:00,73.4,69.3,29.93,WNW,291,0.0,0.0,87,0.00,,FEW,0.01,WeatherDisplay:10.37,2013-02-07 20:06:00,
2013-02-07 14:11:00,73.4,69.3,29.93,NNW,338,0.0,2.3,87,0.00,,FEW,0.01,WeatherDisplay:10.37,2013-02-07 20:11:00,
2013-02-07 14:16:00,73.2,69.4,29.93,NW,307,0.5,0.0,88,0.00,,FEW,0.01,WeatherDisplay:10.37,2013-02-07 20:16:00,
2013-02-07 14:21:00,73.0,69.2,29.93,NNW,348,0.1,3.5,88,0.00,,FEW,0.01,WeatherDisplay:10.37,2013-02-07 20:21:00,
2013-02-07 14:26:00,72.7,68.9,29.92,NNW,335,0.9,0.0,88,0.00,,FEW,0.01,WeatherDisplay:10.37,2013-02-07 20:26:00,
2013-02-07 14:31:00,72.3,68.5,29.92,NNW,335,0.7,2.3,88,0.00,,FEW,0.01,WeatherDisplay:10.37,2013-02-07 20:31:00,
2013-02-07 14:36:00,71.9,68.5,29.92,NNE,24,0.9,0.0,89,0.00,,FEW,0.01,WeatherDisplay:10.37,2013-02-07 20:36:00,
2013-02-07 14:41:00,71.8,68.7,29.92,NE,53,0.3,2.3,90,0.00,,FEW,0.01,WeatherDisplay:10.37,2013-02-07 20:41:00,
2013-02-07 14:46:00,71.8,68.7,29.92,NNW,336,0.3,0.0,90,0.00,,FEW,0.01,WeatherDisplay:10.37,2013-02-07 20:46:00,
2013-02-07 14:51:00,71.8,68.4,29.92,NNE,32,0.4,1.1,89,0.00,,FEW,0.01,WeatherDisplay:10.37,2013-02-07 20:51:00,
2013-02-07 14:56:00,72.0,68.9,29.92,NNE,28,0.1,2.3,90,0.00,,FEW,0.01,WeatherDisplay:10.37,2013-02-07 20:56:00,
2013-02-07 15:01:00,72.3,69.2,29.92,North,2,0.0,0.0,90,0.00,,FEW,0.01,WeatherDisplay:10.37,2013-02-07 21:01:00,
2013-02-07 15:06:00,72.5,69.1,29.92,NW,304,0.0,0.0,89,0.00,,FEW,0.01,WeatherDisplay:10.37,2013-02-07 21:06:00,
2013-02-07 15:11:00,72.8,69.0,29.91,NW,321,0.0,0.0,88,0.00,,FEW,0.01,WeatherDisplay:10.37,2013-02-07 21:11:00,
2013-02-07 15:16:00,73.0,69.2,29.91,WNW,288,0.5,2.3,88,0.00,,FEW,0.01,WeatherDisplay:10.37,2013-02-07 21:16:00,
2013-02-07 15:21:00,73.0,69.2,29.91,NNW,338,0.0,2.3,88,0.00,,FEW,0.01,WeatherDisplay:10.37,2013-02-07 21:21:00,
2013-02-07 15:26:00,72.9,68.8,29.91,NNE,30,1.3,0.0,87,0.00,,FEW,0.01,WeatherDisplay:10.37,2013-02-07 21:26:00,
2013-02-07 15:31:00,72.7,68.6,29.91,NE,43,0.1,1.9,87,0.00,,FEW,0.01,WeatherDisplay:10.37,2013-02-07 21:31:00,
2013-02-07 15:36:00,72.8,69.0,29.91,North,353,0.0,0.0,88,0.00,,FEW,0.01,WeatherDisplay:10.37,2013-02-07 21:36:00,
2013-02-07 15:41:00,73.0,69.2,29.91,NNE,21,0.0,0.0,88,0.00,,FEW,0.01,WeatherDisplay:10.37,2013-02-07 21:41:00,
2013-02-07 15:46:00,73.1,69.0,29.91,NNE,15,0.0,0.0,87,0.00,,FEW,0.01,WeatherDisplay:10.37,2013-02-07 21:46:00,
2013-02-07 15:51:00,73.0,68.9,29.91,NNW,339,0.0,0.0,87,0.00,,FEW,0.01,WeatherDisplay:10.37,2013-02-07 21:51:00,
2013-02-07 15:56:00,73.1,69.0,29.91,North,355,0.0,0.0,87,0.00,,FEW,0.01,WeatherDisplay:10.37,2013-02-07 21:56:00,
2013-02-07 16:01:00,73.4,69.3,29.91,North,357,0.0,0.0,87,0.00,,FEW,0.01,WeatherDisplay:10.37,2013-02-07 22:01:00,
2013-02-07 16:06:00,73.5,69.1,29.91,WNW,294,0.4,2.3,86,0.00,,FEW,0.01,WeatherDisplay:10.37,2013-02-07 22:06:00,
2013-02-07 16:11:00,73.3,69.2,29.91,NW,309,0.0,0.0,87,0.00,,FEW,0.01,WeatherDisplay:10.37,2013-02-07 22:11:00,
2013-02-07 16:16:00,73.4,69.0,29.91,NW,307,0.0,2.3,86,0.00,,FEW,0.01,WeatherDisplay:10.37,2013-02-07 22:16:00,
2013-02-07 16:21:00,73.4,69.0,29.91,WNW,293,0.1,0.0,86,0.00,,FEW,0.01,WeatherDisplay:10.37,2013-02-07 22:21:00,
2013-02-07 16:26:00,73.3,68.9,29.91,NW,304,0.1,2.3,86,0.00,,FEW,0.01,WeatherDisplay:10.37,2013-02-07 22:26:00,
2013-02-07 16:31:00,73.2,69.1,29.92,NNW,338,0.0,0.0,87,0.00,,FEW,0.01,WeatherDisplay:10.37,2013-02-07 22:31:00,
2013-02-07 16:36:00,73.5,69.4,29.92,NNW,338,0.0,0.0,87,0.00,,FEW,0.01,WeatherDisplay:10.37,2013-02-07 22:36:00,
2013-02-07 16:41:00,73.6,69.2,29.91,ENE,73,0.0,0.0,86,0.00,,FEW,0.01,WeatherDisplay:10.37,2013-02-07 22:41:00,
2013-02-07 16:46:00,73.8,69.3,29.91,East,81,0.1,0.0,86,0.00,,FEW,0.01,WeatherDisplay:10.37,2013-02-07 22:46:00,
2013-02-07 16:51:00,73.5,68.7,29.91,ESE,114,3.6,3.6,85,0.00,,FEW,0.01,WeatherDisplay:10.37,2013-02-07 22:51:00,
2013-02-07 16:56:00,72.7,68.6,29.91,ESE,118,1.2,2.3,87,0.00,,FEW,0.01,WeatherDisplay:10.37,2013-02-07 22:56:00,
2013-02-07 17:01:00,72.2,68.4,29.92,East,87,1.4,4.6,88,0.00,,FEW,0.01,WeatherDisplay:10.37,2013-02-07 23:01:00,
2013-02-07 17:06:00,71.4,68.0,29.92,East,94,2.5,4.6,89,0.00,,FEW,0.01,WeatherDisplay:10.37,2013-02-07 23:06:00,
2013-02-07 17:11:00,70.7,67.6,29.92,ESE,119,3.1,4.6,90,0.00,,FEW,0.01,WeatherDisplay:10.37,2013-02-07 23:11:00,
2013-02-07 17:16:00,69.9,66.8,29.92,East,97,3.6,8.1,90,0.00,,FEW,0.01,WeatherDisplay:10.37,2013-02-07 23:16:00,
2013-02-07 17:21:00,69.3,66.9,29.92,East,94,2.7,5.3,92,0.00,,FEW,0.01,WeatherDisplay:10.37,2013-02-07 23:21:00,
2013-02-07 17:26:00,68.8,66.4,29.92,ESE,102,2.5,3.5,92,0.00,,FEW,0.01,WeatherDisplay:10.37,2013-02-07 23:26:00,
2013-02-07 17:31:00,68.5,66.4,29.92,ESE,114,1.8,5.8,93,0.00,,FEW,0.01,WeatherDisplay:10.37,2013-02-07 23:31:00,
2013-02-07 17:36:00,68.4,66.3,29.92,ESE,103,3.1,4.6,93,0.00,,FEW,0.01,WeatherDisplay:10.37,2013-02-07 23:36:00,
2013-02-07 17:41:00,68.2,66.4,29.92,ESE,106,3.6,4.6,94,0.00,,FEW,0.01,WeatherDisplay:10.37,2013-02-07 23:41:00,
2013-02-07 17:46:00,68.0,66.2,29.93,ESE,116,3.0,4.6,94,0.00,,FEW,0.01,WeatherDisplay:10.37,2013-02-07 23:46:00,
2013-02-07 17:51:00,67.8,66.0,29.93,ESE,120,3.9,5.8,94,0.00,,FEW,0.01,WeatherDisplay:10.37,2013-02-07 23:51:00,
2013-02-07 17:56:00,67.5,65.7,29.93,East,96,3.4,5.8,94,0.00,,FEW,0.01,WeatherDisplay:10.37,2013-02-07 23:56:00,
2013-02-07 18:01:00,67.4,65.9,29.93,ESE,113,1.5,4.6,95,0.00,,FEW,0.01,WeatherDisplay:10.37,2013-02-08 00:01:00,
2013-02-07 18:06:00,67.3,65.8,29.93,ESE,123,1.4,2.3,95,0.00,,FEW,0.01,WeatherDisplay:10.37,2013-02-08 00:06:00,
2013-02-07 18:11:00,67.2,65.7,29.93,East,100,0.5,1.1,95,0.00,,FEW,0.01,WeatherDisplay:10.37,2013-02-08 00:11:00,
2013-02-07 18:16:00,67.2,65.7,29.94,SE,140,1.5,3.5,95,0.00,,FEW,0.01,WeatherDisplay:10.37,2013-02-08 00:16:00,
2013-02-07 18:21:00,67.2,67.2,29.93,SE,140,1.3,3.5,100,0.00,,FEW,0.01,WeatherDisplay:10.37,2013-02-08 00:21:00,
2013-02-07 18:26:00,67.2,67.2,29.94,ESE,115,0.8,2.3,100,0.00,,FEW,0.01,WeatherDisplay:10.37,2013-02-08 00:26:00,
2013-02-07 18:31:00,67.2,67.2,29.94,East,99,1.4,3.5,100,0.00,,FEW,0.01,WeatherDisplay:10.37,2013-02-08 00:31:00,
2013-02-07 18:36:00,67.2,67.2,29.94,SE,124,0.6,1.1,100,0.00,,FEW,0.01,WeatherDisplay:10.37,2013-02-08 00:36:00,
2013-02-07 18:41:00,67.1,67.1,29.94,ESE,111,0.9,5.8,100,0.00,,FEW,0.01,WeatherDisplay:10.37,2013-02-08 00:41:00,
2013-02-07 18:46:00,67.1,67.1,29.94,SE,135,2.1,3.5,100,0.00,,FEW,0.01,WeatherDisplay:10.37,2013-02-08 00:46:00,
2013-02-07 18:51:00,67.1,67.1,29.94,ESE,108,0.7,3.5,100,0.00,,FEW,0.01,WeatherDisplay:10.37,2013-02-08 00:51:00,
2013-02-07 18:56:00,67.1,67.1,29.94,East,95,0.9,3.5,100,0.00,,FEW,0.01,WeatherDisplay:10.37,2013-02-08 00:56:00,
2013-02-07 19:01:00,67.0,67.0,29.94,SE,131,0.0,1.1,100,0.00,,FEW,0.01,WeatherDisplay:10.37,2013-02-08 01:01:00,
2013-02-07 19:06:00,67.0,67.0,29.94,ESE,105,1.2,2.3,100,0.00,,FEW,0.01,WeatherDisplay:10.37,2013-02-08 01:06:00,
2013-02-07 19:11:00,67.1,67.1,29.94,East,98,2.0,3.5,100,0.00,,FEW,0.01,WeatherDisplay:10.37,2013-02-08 01:11:00,
2013-02-07 19:16:00,67.1,67.1,29.95,ESE,118,1.2,4.6,100,0.00,,FEW,0.01,WeatherDisplay:10.37,2013-02-08 01:16:00,
2013-02-07 19:21:00,67.1,67.1,29.95,SE,128,1.5,3.5,100,0.00,,FEW,0.01,WeatherDisplay:10.37,2013-02-08 01:21:00,
2013-02-07 19:26:00,67.1,67.1,29.95,ESE,115,0.9,3.5,100,0.00,,FEW,0.01,WeatherDisplay:10.37,2013-02-08 01:26:00,
2013-02-07 19:31:00,67.0,67.0,29.95,ESE,121,0.0,0.0,100,0.00,,FEW,0.01,WeatherDisplay:10.37,2013-02-08 01:31:00,
2013-02-07 19:36:00,66.9,66.9,29.95,ESE,119,0.0,0.0,100,0.00,,FEW,0.01,WeatherDisplay:10.37,2013-02-08 01:36:00,
2013-02-07 19:41:00,66.9,66.9,29.95,ESE,121,0.0,1.1,100,0.00,,FEW,0.01,WeatherDisplay:10.37,2013-02-08 01:41:00,
2013-02-07 19:46:00,66.8,66.8,29.96,ESE,121,0.2,0.0,100,0.00,,FEW,0.01,WeatherDisplay:10.37,2013-02-08 01:46:00,
2013-02-07 19:51:00,66.8,66.8,29.96,ESE,118,0.0,0.0,100,0.00,,FEW,0.01,WeatherDisplay:10.37,2013-02-08 01:51:00,
2013-02-07 19:56:00,66.7,66.7,29.96,ESE,118,0.1,1.1,100,0.00,,FEW,0.01,WeatherDisplay:10.37,2013-02-08 01:56:00,
2013-02-07 20:01:00,66.7,66.7,29.96,ESE,118,0.0,0.0,100,0.00,,FEW,0.01,WeatherDisplay:10.37,2013-02-08 02:01:00,
2013-02-07 20:06:00,66.6,66.6,29.96,ESE,118,0.0,0.0,100,0.00,,FEW,0.01,WeatherDisplay:10.37,2013-02-08 02:06:00,
2013-02-07 20:11:00,66.6,66.6,29.96,SE,130,0.1,1.1,100,0.00,,FEW,0.01,WeatherDisplay:10.37,2013-02-08 02:11:00,
2013-02-07 20:16:00,66.4,66.4,29.96,SE,135,0.5,1.1,100,0.00,,FEW,0.01,WeatherDisplay:10.37,2013-02-08 02:16:00,
2013-02-07 20:22:00,66.3,66.3,29.96,ESE,111,0.2,1.1,100,0.00,,FEW,0.01,WeatherDisplay:10.37,2013-02-08 02:22:00,
2013-02-07 20:27:00,66.1,66.1,29.96,ESE,111,0.0,0.0,100,0.00,,FEW,0.01,WeatherDisplay:10.37,2013-02-08 02:27:00,
2013-02-07 20:32:00,65.9,65.9,29.96,ESE,112,0.0,0.0,100,0.00,,FEW,0.01,WeatherDisplay:10.37,2013-02-08 02:32:00,
2013-02-07 20:37:00,65.6,65.6,29.96,ESE,111,0.0,0.0,100,0.00,,FEW,0.01,WeatherDisplay:10.37,2013-02-08 02:37:00,
2013-02-07 20:42:00,65.5,65.5,29.97,ESE,111,0.0,0.0,100,0.00,,FEW,0.01,WeatherDisplay:10.37,2013-02-08 02:42:00,
2013-02-07 20:47:00,65.5,65.5,29.96,ESE,111,0.0,0.0,100,0.00,,FEW,0.01,WeatherDisplay:10.37,2013-02-08 02:47:00,
2013-02-07 20:52:00,65.4,65.4,29.97,ESE,116,0.0,1.1,100,0.00,,FEW,0.01,WeatherDisplay:10.37,2013-02-08 02:52:00,
2013-02-07 20:57:00,65.2,65.2,29.97,SE,139,0.0,1.1,100,0.00,,FEW,0.01,WeatherDisplay:10.37,2013-02-08 02:57:00,
2013-02-07 21:02:00,65.1,65.1,29.97,SE,139,0.0,0.0,100,0.00,,FEW,0.01,WeatherDisplay:10.37,2013-02-08 03:02:00,
2013-02-07 21:07:00,65.0,65.0,29.97,SE,144,0.0,0.0,100,0.00,,FEW,0.01,WeatherDisplay:10.37,2013-02-08 03:07:00,
2013-02-07 21:12:00,65.0,65.0,29.97,SE,144,0.0,0.0,100,0.00,,FEW,0.01,WeatherDisplay:10.37,2013-02-08 03:12:00,
2013-02-07 21:17:00,65.0,65.0,29.97,SE,143,0.5,1.1,100,0.00,,FEW,0.01,WeatherDisplay:10.37,2013-02-08 03:17:00,
2013-02-07 21:22:00,65.0,65.0,29.97,SE,142,1.2,2.3,100,0.00,,FEW,0.01,WeatherDisplay:10.37,2013-02-08 03:22:00,
2013-02-07 21:27:00,65.1,65.1,29.97,SE,135,0.9,2.3,100,0.00,,FEW,0.01,WeatherDisplay:10.37,2013-02-08 03:27:00,
2013-02-07 21:32:00,65.0,65.0,29.98,SE,132,0.0,0.0,100,0.00,,FEW,0.01,WeatherDisplay:10.37,2013-02-08 03:32:00,
2013-02-07 21:37:00,64.8,64.8,29.98,SE,132,0.0,0.0,100,0.00,,FEW,0.01,WeatherDisplay:10.37,2013-02-08 03:37:00,
2013-02-07 21:42:00,64.7,64.7,29.98,SE,132,0.0,1.1,100,0.00,,FEW,0.01,WeatherDisplay:10.37,2013-02-08 03:42:00,
2013-02-07 21:47:00,64.7,64.7,29.98,SE,132,0.0,0.0,100,0.00,,FEW,0.01,WeatherDisplay:10.37,2013-02-08 03:47:00,
2013-02-07 21:52:00,64.7,64.7,29.98,SE,144,0.0,1.1,100,0.00,,FEW,0.01,WeatherDisplay:10.37,2013-02-08 03:52:00,
2013-02-07 21:57:00,64.7,64.7,29.98,SE,133,0.4,1.1,100,0.00,,FEW,0.01,WeatherDisplay:10.37,2013-02-08 03:57:00,
2013-02-07 22:02:00,64.7,64.7,29.98,SE,142,0.1,1.1,100,0.00,,FEW,0.01,WeatherDisplay:10.37,2013-02-08 04:02:00,
2013-02-07 22:07:00,64.6,64.6,29.98,SSE,152,0.1,1.1,100,0.00,,FEW,0.01,WeatherDisplay:10.37,2013-02-08 04:07:00,
2013-02-07 22:12:00,64.6,64.6,29.98,SSE,153,0.0,0.0,100,0.00,,FEW,0.01,WeatherDisplay:10.37,2013-02-08 04:12:00,
2013-02-07 22:17:00,64.5,64.5,29.98,SSE,152,0.0,0.0,100,0.00,,FEW,0.01,WeatherDisplay:10.37,2013-02-08 04:17:00,
2013-02-07 22:22:00,64.5,64.5,29.99,SE,133,0.0,0.0,100,0.00,,FEW,0.01,WeatherDisplay:10.37,2013-02-08 04:22:00,
2013-02-07 22:27:00,64.6,64.6,29.99,SE,133,0.0,1.1,100,0.00,,FEW,0.01,WeatherDisplay:10.37,2013-02-08 04:27:00,
2013-02-07 22:32:00,64.5,64.5,29.99,SE,133,0.0,0.0,100,0.00,,FEW,0.01,WeatherDisplay:10.37,2013-02-08 04:32:00,
2013-02-07 22:37:00,64.4,64.4,29.99,SE,133,0.0,0.0,100,0.00,,FEW,0.01,WeatherDisplay:10.37,2013-02-08 04:37:00,
2013-02-07 22:42:00,64.3,64.3,29.99,SE,133,0.0,0.0,100,0.00,,FEW,0.01,WeatherDisplay:10.37,2013-02-08 04:42:00,
2013-02-07 22:47:00,64.2,64.2,29.99,SE,133,0.0,0.0,100,0.00,,FEW,0.01,WeatherDisplay:10.37,2013-02-08 04:47:00,
2013-02-07 22:52:00,64.0,64.0,30.00,SE,133,0.0,0.0,100,0.00,,FEW,0.01,WeatherDisplay:10.37,2013-02-08 04:52:00,
2013-02-07 22:57:00,63.9,63.9,29.99,SE,133,0.0,0.0,100,0.00,,FEW,0.01,WeatherDisplay:10.37,2013-02-08 04:57:00,
2013-02-07 23:00:00,64.0,64.0,30.00,SE,133,0.0,0.0,100,0.00,,FEW,0.01,WeatherDisplay:10.37,2013-02-08 05:00:00,
2013-02-07 23:05:00,63.9,63.9,30.00,SE,133,0.0,0.0,100,0.00,,FEW,0.01,WeatherDisplay:10.37,2013-02-08 05:05:00,
2013-02-07 23:10:00,63.4,63.4,30.00,SE,133,0.0,0.0,100,0.00,,FEW,0.01,WeatherDisplay:10.37,2013-02-08 05:10:00,
2013-02-07 23:15:00,62.8,62.8,30.00,SE,133,0.0,0.0,100,0.00,,FEW,0.01,WeatherDisplay:10.37,2013-02-08 05:15:00,
2013-02-07 23:20:00,62.5,62.5,30.00,SE,133,0.0,0.0,100,0.00,,FEW,0.01,WeatherDisplay:10.37,2013-02-08 05:20:00,
2013-02-07 23:25:00,62.2,62.2,30.00,SE,133,0.0,0.0,100,0.00,,FEW,0.01,WeatherDisplay:10.37,2013-02-08 05:25:00,
2013-02-07 23:30:00,62.1,62.1,30.00,SE,133,0.0,0.0,100,0.00,,FEW,0.01,WeatherDisplay:10.37,2013-02-08 05:30:00,
2013-02-07 23:35:00,62.1,62.1,30.00,SE,133,0.0,0.0,100,0.00,,FEW,0.01,WeatherDisplay:10.37,2013-02-08 05:35:00,
2013-02-07 23:40:00,62.0,62.0,30.00,SE,133,0.0,0.0,100,0.00,,FEW,0.01,WeatherDisplay:10.37,2013-02-08 05:40:00,
2013-02-07 23:45:00,61.8,61.8,30.00,SE,133,0.0,0.0,100,0.00,,FEW,0.01,WeatherDisplay:10.37,2013-02-08 05:45:00,
2013-02-07 23:50:00,61.5,61.5,30.00,SE,133,0.0,0.0,100,0.00,,FEW,0.01,WeatherDisplay:10.37,2013-02-08 05:50:00,
2013-02-07 23:55:00,61.0,61.0,30.00,SE,133,0.0,0.0,100,0.00,,FEW,0.01,WeatherDisplay:10.37,2013-02-08 05:55:00,